sensor_id;sensor_type;location;lat;lon;timestamp;P1;durP1;ratioP1;P2;durP2;ratioP2
53533;SDS011;39421;53.204;6.568;2023-07-08T00:00:20;8.98;;;3.90;;
53533;SDS011;39421;53.204;6.568;2023-07-08T00:02:47;8.98;;;3.85;;
53533;SDS011;39421;53.204;6.568;2023-07-08T00:05:13;8.45;;;3.65;;
53533;SDS011;39421;53.204;6.568;2023-07-08T00:07:40;7.83;;;3.97;;
53533;SDS011;39421;53.204;6.568;2023-07-08T00:12:42;8.93;;;4.35;;
53533;SDS011;39421;53.204;6.568;2023-07-08T00:15:09;9.07;;;3.70;;
53533;SDS011;39421;53.204;6.568;2023-07-08T00:17:36;8.75;;;3.80;;
53533;SDS011;39421;53.204;6.568;2023-07-08T00:22:38;8.55;;;3.70;;
53533;SDS011;39421;53.204;6.568;2023-07-08T00:25:06;9.03;;;3.70;;
53533;SDS011;39421;53.204;6.568;2023-07-08T00:27:32;8.37;;;3.80;;
53533;SDS011;39421;53.204;6.568;2023-07-08T00:29:58;7.72;;;3.53;;
53533;SDS011;39421;53.204;6.568;2023-07-08T00:32:25;8.68;;;3.80;;
53533;SDS011;39421;53.204;6.568;2023-07-08T00:34:51;8.80;;;3.80;;
53533;SDS011;39421;53.204;6.568;2023-07-08T00:37:17;9.18;;;3.80;;
53533;SDS011;39421;53.204;6.568;2023-07-08T00:39:43;9.00;;;3.60;;
53533;SDS011;39421;53.204;6.568;2023-07-08T00:42:16;8.27;;;3.90;;
53533;SDS011;39421;53.204;6.568;2023-07-08T00:44:43;9.77;;;3.90;;
53533;SDS011;39421;53.204;6.568;2023-07-08T00:47:10;8.50;;;4.00;;
53533;SDS011;39421;53.204;6.568;2023-07-08T00:52:16;8.27;;;3.65;;
53533;SDS011;39421;53.204;6.568;2023-07-08T00:54:42;10.03;;;4.10;;
53533;SDS011;39421;53.204;6.568;2023-07-08T00:57:09;8.57;;;4.10;;
53533;SDS011;39421;53.204;6.568;2023-07-08T00:59:42;8.25;;;4.20;;
53533;SDS011;39421;53.204;6.568;2023-07-08T01:02:09;8.55;;;4.30;;
53533;SDS011;39421;53.204;6.568;2023-07-08T01:07:07;9.65;;;4.20;;
53533;SDS011;39421;53.204;6.568;2023-07-08T01:09:35;9.07;;;3.93;;
53533;SDS011;39421;53.204;6.568;2023-07-08T01:12:04;9.75;;;4.05;;
53533;SDS011;39421;53.204;6.568;2023-07-08T01:14:32;8.32;;;4.05;;
53533;SDS011;39421;53.204;6.568;2023-07-08T01:17:00;10.07;;;4.37;;
53533;SDS011;39421;53.204;6.568;2023-07-08T01:19:27;8.77;;;4.10;;
53533;SDS011;39421;53.204;6.568;2023-07-08T01:24:27;8.50;;;4.40;;
53533;SDS011;39421;53.204;6.568;2023-07-08T01:26:53;8.87;;;4.10;;
53533;SDS011;39421;53.204;6.568;2023-07-08T01:29:19;9.05;;;4.40;;
53533;SDS011;39421;53.204;6.568;2023-07-08T01:31:45;9.10;;;4.18;;
53533;SDS011;39421;53.204;6.568;2023-07-08T01:34:14;8.63;;;3.83;;
53533;SDS011;39421;53.204;6.568;2023-07-08T01:36:43;8.90;;;4.38;;
53533;SDS011;39421;53.204;6.568;2023-07-08T01:39:11;9.50;;;4.43;;
53533;SDS011;39421;53.204;6.568;2023-07-08T01:41:39;9.40;;;4.20;;
53533;SDS011;39421;53.204;6.568;2023-07-08T01:44:05;9.65;;;4.22;;
53533;SDS011;39421;53.204;6.568;2023-07-08T01:46:31;8.95;;;4.10;;
53533;SDS011;39421;53.204;6.568;2023-07-08T01:48:57;8.73;;;4.23;;
53533;SDS011;39421;53.204;6.568;2023-07-08T01:51:25;8.65;;;4.32;;
53533;SDS011;39421;53.204;6.568;2023-07-08T01:53:52;9.32;;;4.15;;
53533;SDS011;39421;53.204;6.568;2023-07-08T01:56:18;8.70;;;4.22;;
53533;SDS011;39421;53.204;6.568;2023-07-08T01:58:44;9.43;;;4.40;;
53533;SDS011;39421;53.204;6.568;2023-07-08T02:01:10;8.65;;;4.30;;
53533;SDS011;39421;53.204;6.568;2023-07-08T02:03:36;9.13;;;4.20;;
53533;SDS011;39421;53.204;6.568;2023-07-08T02:06:03;8.70;;;4.30;;
53533;SDS011;39421;53.204;6.568;2023-07-08T02:08:29;8.95;;;4.30;;
53533;SDS011;39421;53.204;6.568;2023-07-08T02:10:56;10.30;;;4.47;;
53533;SDS011;39421;53.204;6.568;2023-07-08T02:13:23;9.67;;;4.40;;
53533;SDS011;39421;53.204;6.568;2023-07-08T02:15:49;9.40;;;4.60;;
53533;SDS011;39421;53.204;6.568;2023-07-08T02:18:16;9.23;;;4.47;;
53533;SDS011;39421;53.204;6.568;2023-07-08T02:20:45;9.03;;;4.60;;
53533;SDS011;39421;53.204;6.568;2023-07-08T02:23:12;9.07;;;4.35;;
53533;SDS011;39421;53.204;6.568;2023-07-08T02:25:38;8.98;;;4.38;;
53533;SDS011;39421;53.204;6.568;2023-07-08T02:28:04;9.00;;;4.23;;
53533;SDS011;39421;53.204;6.568;2023-07-08T02:30:30;8.20;;;4.15;;
53533;SDS011;39421;53.204;6.568;2023-07-08T02:32:56;9.47;;;4.50;;
53533;SDS011;39421;53.204;6.568;2023-07-08T02:35:23;10.88;;;4.57;;
53533;SDS011;39421;53.204;6.568;2023-07-08T02:37:50;9.93;;;4.77;;
53533;SDS011;39421;53.204;6.568;2023-07-08T02:40:17;9.43;;;4.90;;
53533;SDS011;39421;53.204;6.568;2023-07-08T02:42:43;9.45;;;4.57;;
53533;SDS011;39421;53.204;6.568;2023-07-08T02:45:09;9.63;;;4.60;;
53533;SDS011;39421;53.204;6.568;2023-07-08T02:47:35;9.10;;;4.88;;
53533;SDS011;39421;53.204;6.568;2023-07-08T02:50:01;9.88;;;4.60;;
53533;SDS011;39421;53.204;6.568;2023-07-08T02:52:27;11.27;;;5.00;;
53533;SDS011;39421;53.204;6.568;2023-07-08T02:54:53;10.57;;;4.90;;
53533;SDS011;39421;53.204;6.568;2023-07-08T02:57:20;10.60;;;4.90;;
53533;SDS011;39421;53.204;6.568;2023-07-08T02:59:46;8.68;;;4.72;;
53533;SDS011;39421;53.204;6.568;2023-07-08T03:02:12;9.30;;;4.80;;
53533;SDS011;39421;53.204;6.568;2023-07-08T03:04:39;9.82;;;5.13;;
53533;SDS011;39421;53.204;6.568;2023-07-08T03:07:05;9.80;;;5.40;;
53533;SDS011;39421;53.204;6.568;2023-07-08T03:09:36;10.20;;;5.30;;
53533;SDS011;39421;53.204;6.568;2023-07-08T03:12:02;10.10;;;5.10;;
53533;SDS011;39421;53.204;6.568;2023-07-08T03:14:28;9.45;;;4.80;;
53533;SDS011;39421;53.204;6.568;2023-07-08T03:16:54;9.80;;;5.07;;
53533;SDS011;39421;53.204;6.568;2023-07-08T03:19:21;10.23;;;5.30;;
53533;SDS011;39421;53.204;6.568;2023-07-08T03:21:47;9.73;;;5.05;;
53533;SDS011;39421;53.204;6.568;2023-07-08T03:24:13;10.70;;;5.25;;
53533;SDS011;39421;53.204;6.568;2023-07-08T03:26:43;9.27;;;4.78;;
53533;SDS011;39421;53.204;6.568;2023-07-08T03:29:11;9.38;;;5.10;;
53533;SDS011;39421;53.204;6.568;2023-07-08T03:31:38;9.77;;;5.20;;
53533;SDS011;39421;53.204;6.568;2023-07-08T03:34:04;9.70;;;5.32;;
53533;SDS011;39421;53.204;6.568;2023-07-08T03:36:31;9.13;;;5.30;;
53533;SDS011;39421;53.204;6.568;2023-07-08T03:38:57;9.82;;;5.32;;
53533;SDS011;39421;53.204;6.568;2023-07-08T03:41:23;9.30;;;5.32;;
53533;SDS011;39421;53.204;6.568;2023-07-08T03:43:49;9.88;;;5.30;;
53533;SDS011;39421;53.204;6.568;2023-07-08T03:46:16;9.88;;;5.50;;
53533;SDS011;39421;53.204;6.568;2023-07-08T03:48:42;9.32;;;5.45;;
53533;SDS011;39421;53.204;6.568;2023-07-08T03:51:17;9.27;;;5.30;;
53533;SDS011;39421;53.204;6.568;2023-07-08T03:53:45;9.68;;;5.03;;
53533;SDS011;39421;53.204;6.568;2023-07-08T03:56:12;11.27;;;5.47;;
53533;SDS011;39421;53.204;6.568;2023-07-08T03:58:39;9.63;;;5.13;;
53533;SDS011;39421;53.204;6.568;2023-07-08T04:01:07;10.47;;;5.37;;
53533;SDS011;39421;53.204;6.568;2023-07-08T04:03:35;9.85;;;5.35;;
53533;SDS011;39421;53.204;6.568;2023-07-08T04:06:01;9.43;;;5.00;;
53533;SDS011;39421;53.204;6.568;2023-07-08T04:08:27;9.57;;;4.95;;
53533;SDS011;39421;53.204;6.568;2023-07-08T04:10:53;12.03;;;5.30;;
53533;SDS011;39421;53.204;6.568;2023-07-08T04:13:19;10.88;;;5.68;;
53533;SDS011;39421;53.204;6.568;2023-07-08T04:15:45;8.80;;;5.00;;
53533;SDS011;39421;53.204;6.568;2023-07-08T04:18:15;8.97;;;5.23;;
53533;SDS011;39421;53.204;6.568;2023-07-08T04:20:41;9.57;;;5.13;;
53533;SDS011;39421;53.204;6.568;2023-07-08T04:23:07;12.27;;;5.68;;
53533;SDS011;39421;53.204;6.568;2023-07-08T04:25:33;9.95;;;5.30;;
53533;SDS011;39421;53.204;6.568;2023-07-08T04:27:59;10.38;;;5.60;;
53533;SDS011;39421;53.204;6.568;2023-07-08T04:30:25;9.95;;;5.38;;
53533;SDS011;39421;53.204;6.568;2023-07-08T04:32:52;9.93;;;5.55;;
53533;SDS011;39421;53.204;6.568;2023-07-08T04:35:18;9.60;;;5.55;;
53533;SDS011;39421;53.204;6.568;2023-07-08T04:37:44;10.13;;;5.47;;
53533;SDS011;39421;53.204;6.568;2023-07-08T04:40:16;11.52;;;5.95;;
53533;SDS011;39421;53.204;6.568;2023-07-08T04:42:44;10.35;;;5.53;;
53533;SDS011;39421;53.204;6.568;2023-07-08T04:45:12;10.40;;;5.72;;
53533;SDS011;39421;53.204;6.568;2023-07-08T04:47:39;11.43;;;6.00;;
53533;SDS011;39421;53.204;6.568;2023-07-08T04:50:05;9.90;;;5.70;;
53533;SDS011;39421;53.204;6.568;2023-07-08T04:52:31;10.93;;;5.90;;
53533;SDS011;39421;53.204;6.568;2023-07-08T04:54:57;9.67;;;5.43;;
53533;SDS011;39421;53.204;6.568;2023-07-08T04:57:23;10.68;;;5.85;;
53533;SDS011;39421;53.204;6.568;2023-07-08T04:59:50;9.05;;;5.47;;
53533;SDS011;39421;53.204;6.568;2023-07-08T05:02:16;11.18;;;5.45;;
53533;SDS011;39421;53.204;6.568;2023-07-08T05:04:42;10.40;;;5.55;;
53533;SDS011;39421;53.204;6.568;2023-07-08T05:07:08;9.10;;;5.07;;
53533;SDS011;39421;53.204;6.568;2023-07-08T05:09:34;10.63;;;5.70;;
53533;SDS011;39421;53.204;6.568;2023-07-08T05:12:01;11.20;;;5.65;;
53533;SDS011;39421;53.204;6.568;2023-07-08T05:14:27;8.50;;;5.32;;
53533;SDS011;39421;53.204;6.568;2023-07-08T05:16:53;9.52;;;5.13;;
53533;SDS011;39421;53.204;6.568;2023-07-08T05:19:19;12.77;;;5.10;;
53533;SDS011;39421;53.204;6.568;2023-07-08T05:21:47;10.10;;;5.53;;
53533;SDS011;39421;53.204;6.568;2023-07-08T05:24:13;10.52;;;5.32;;
53533;SDS011;39421;53.204;6.568;2023-07-08T05:26:39;10.95;;;5.68;;
53533;SDS011;39421;53.204;6.568;2023-07-08T05:29:05;9.93;;;5.43;;
53533;SDS011;39421;53.204;6.568;2023-07-08T05:31:32;10.10;;;5.50;;
53533;SDS011;39421;53.204;6.568;2023-07-08T05:33:59;10.88;;;5.20;;
53533;SDS011;39421;53.204;6.568;2023-07-08T05:36:25;9.07;;;4.85;;
53533;SDS011;39421;53.204;6.568;2023-07-08T05:38:51;9.82;;;5.55;;
53533;SDS011;39421;53.204;6.568;2023-07-08T05:41:17;10.02;;;5.38;;
53533;SDS011;39421;53.204;6.568;2023-07-08T05:43:43;10.10;;;5.28;;
53533;SDS011;39421;53.204;6.568;2023-07-08T05:46:09;9.98;;;5.43;;
53533;SDS011;39421;53.204;6.568;2023-07-08T05:48:36;9.98;;;5.40;;
53533;SDS011;39421;53.204;6.568;2023-07-08T05:51:02;10.90;;;5.20;;
53533;SDS011;39421;53.204;6.568;2023-07-08T05:53:28;10.52;;;5.22;;
53533;SDS011;39421;53.204;6.568;2023-07-08T05:55:54;9.23;;;5.28;;
53533;SDS011;39421;53.204;6.568;2023-07-08T05:58:21;10.02;;;5.40;;
53533;SDS011;39421;53.204;6.568;2023-07-08T06:00:54;10.07;;;5.25;;
53533;SDS011;39421;53.204;6.568;2023-07-08T06:03:20;10.50;;;5.70;;
53533;SDS011;39421;53.204;6.568;2023-07-08T06:05:46;9.48;;;5.53;;
53533;SDS011;39421;53.204;6.568;2023-07-08T06:08:14;10.85;;;5.00;;
53533;SDS011;39421;53.204;6.568;2023-07-08T06:10:41;9.02;;;5.03;;
53533;SDS011;39421;53.204;6.568;2023-07-08T06:13:07;9.52;;;5.07;;
53533;SDS011;39421;53.204;6.568;2023-07-08T06:15:34;9.85;;;5.05;;
53533;SDS011;39421;53.204;6.568;2023-07-08T06:18:00;9.68;;;4.78;;
53533;SDS011;39421;53.204;6.568;2023-07-08T06:20:27;9.73;;;5.13;;
53533;SDS011;39421;53.204;6.568;2023-07-08T06:22:54;8.18;;;4.65;;
53533;SDS011;39421;53.204;6.568;2023-07-08T06:25:20;9.32;;;4.72;;
53533;SDS011;39421;53.204;6.568;2023-07-08T06:27:46;9.27;;;4.97;;
53533;SDS011;39421;53.204;6.568;2023-07-08T06:30:12;8.75;;;4.47;;
53533;SDS011;39421;53.204;6.568;2023-07-08T06:32:38;10.07;;;5.00;;
53533;SDS011;39421;53.204;6.568;2023-07-08T06:35:05;9.00;;;4.28;;
53533;SDS011;39421;53.204;6.568;2023-07-08T06:37:31;8.80;;;4.90;;
53533;SDS011;39421;53.204;6.568;2023-07-08T06:39:57;10.25;;;4.72;;
53533;SDS011;39421;53.204;6.568;2023-07-08T06:42:23;8.80;;;4.60;;
53533;SDS011;39421;53.204;6.568;2023-07-08T06:44:49;8.70;;;4.30;;
53533;SDS011;39421;53.204;6.568;2023-07-08T06:47:19;9.35;;;4.78;;
53533;SDS011;39421;53.204;6.568;2023-07-08T06:49:46;9.07;;;4.50;;
53533;SDS011;39421;53.204;6.568;2023-07-08T06:52:12;8.52;;;4.60;;
53533;SDS011;39421;53.204;6.568;2023-07-08T06:54:38;8.32;;;4.60;;
53533;SDS011;39421;53.204;6.568;2023-07-08T06:57:04;8.85;;;4.63;;
53533;SDS011;39421;53.204;6.568;2023-07-08T06:59:31;8.38;;;4.28;;
53533;SDS011;39421;53.204;6.568;2023-07-08T07:01:57;8.97;;;4.33;;
53533;SDS011;39421;53.204;6.568;2023-07-08T07:04:23;8.35;;;4.32;;
53533;SDS011;39421;53.204;6.568;2023-07-08T07:06:49;9.07;;;4.53;;
53533;SDS011;39421;53.204;6.568;2023-07-08T07:09:15;8.57;;;4.00;;
53533;SDS011;39421;53.204;6.568;2023-07-08T07:11:42;8.77;;;4.57;;
53533;SDS011;39421;53.204;6.568;2023-07-08T07:14:08;8.02;;;4.45;;
53533;SDS011;39421;53.204;6.568;2023-07-08T07:16:34;8.82;;;4.47;;
53533;SDS011;39421;53.204;6.568;2023-07-08T07:19:00;9.10;;;4.25;;
53533;SDS011;39421;53.204;6.568;2023-07-08T07:21:27;9.48;;;4.40;;
53533;SDS011;39421;53.204;6.568;2023-07-08T07:23:53;8.23;;;4.30;;
53533;SDS011;39421;53.204;6.568;2023-07-08T07:26:19;9.68;;;4.50;;
53533;SDS011;39421;53.204;6.568;2023-07-08T07:28:45;9.93;;;4.35;;
53533;SDS011;39421;53.204;6.568;2023-07-08T07:31:11;8.25;;;4.30;;
53533;SDS011;39421;53.204;6.568;2023-07-08T07:33:38;8.48;;;4.00;;
53533;SDS011;39421;53.204;6.568;2023-07-08T07:36:04;8.38;;;3.90;;
53533;SDS011;39421;53.204;6.568;2023-07-08T07:38:32;9.27;;;4.20;;
53533;SDS011;39421;53.204;6.568;2023-07-08T07:40:59;7.85;;;4.07;;
53533;SDS011;39421;53.204;6.568;2023-07-08T07:43:29;8.73;;;4.20;;
53533;SDS011;39421;53.204;6.568;2023-07-08T07:45:55;8.88;;;3.80;;
53533;SDS011;39421;53.204;6.568;2023-07-08T07:48:22;7.15;;;3.88;;
53533;SDS011;39421;53.204;6.568;2023-07-08T07:50:50;8.80;;;4.13;;
53533;SDS011;39421;53.204;6.568;2023-07-08T07:53:16;7.40;;;4.10;;
53533;SDS011;39421;53.204;6.568;2023-07-08T07:55:43;8.65;;;4.13;;
53533;SDS011;39421;53.204;6.568;2023-07-08T07:58:09;8.70;;;3.90;;
53533;SDS011;39421;53.204;6.568;2023-07-08T08:00:37;8.18;;;4.13;;
53533;SDS011;39421;53.204;6.568;2023-07-08T08:03:03;8.45;;;3.92;;
53533;SDS011;39421;53.204;6.568;2023-07-08T08:05:29;7.75;;;3.90;;
53533;SDS011;39421;53.204;6.568;2023-07-08T08:07:55;9.07;;;4.10;;
53533;SDS011;39421;53.204;6.568;2023-07-08T08:10:21;7.40;;;3.83;;
53533;SDS011;39421;53.204;6.568;2023-07-08T08:12:48;7.45;;;3.90;;
53533;SDS011;39421;53.204;6.568;2023-07-08T08:15:16;7.60;;;3.78;;
53533;SDS011;39421;53.204;6.568;2023-07-08T08:17:42;8.40;;;3.78;;
53533;SDS011;39421;53.204;6.568;2023-07-08T08:20:12;6.63;;;3.55;;
53533;SDS011;39421;53.204;6.568;2023-07-08T08:22:38;7.65;;;3.50;;
53533;SDS011;39421;53.204;6.568;2023-07-08T08:25:04;7.65;;;3.65;;
53533;SDS011;39421;53.204;6.568;2023-07-08T08:27:31;8.30;;;3.73;;
53533;SDS011;39421;53.204;6.568;2023-07-08T08:29:57;8.63;;;3.55;;
53533;SDS011;39421;53.204;6.568;2023-07-08T08:32:23;7.50;;;3.60;;
53533;SDS011;39421;53.204;6.568;2023-07-08T08:34:49;8.02;;;4.00;;
53533;SDS011;39421;53.204;6.568;2023-07-08T08:37:15;8.32;;;3.80;;
53533;SDS011;39421;53.204;6.568;2023-07-08T08:39:41;8.68;;;3.90;;
53533;SDS011;39421;53.204;6.568;2023-07-08T08:42:42;7.63;;;3.70;;
53533;SDS011;39421;53.204;6.568;2023-07-08T08:45:00;9.40;;;3.90;;
53533;SDS011;39421;53.204;6.568;2023-07-08T08:50:04;7.60;;;3.55;;
53533;SDS011;39421;53.204;6.568;2023-07-08T08:52:34;7.72;;;3.90;;
53533;SDS011;39421;53.204;6.568;2023-07-08T08:55:00;7.63;;;3.77;;
53533;SDS011;39421;53.204;6.568;2023-07-08T08:57:32;7.68;;;3.70;;
53533;SDS011;39421;53.204;6.568;2023-07-08T09:00:01;8.40;;;3.70;;
53533;SDS011;39421;53.204;6.568;2023-07-08T09:04:55;7.93;;;3.67;;
53533;SDS011;39421;53.204;6.568;2023-07-08T09:07:23;7.28;;;3.40;;
53533;SDS011;39421;53.204;6.568;2023-07-08T09:09:52;7.30;;;3.50;;
53533;SDS011;39421;53.204;6.568;2023-07-08T09:12:24;7.85;;;4.00;;
53533;SDS011;39421;53.204;6.568;2023-07-08T09:14:51;8.25;;;3.90;;
53533;SDS011;39421;53.204;6.568;2023-07-08T09:19:49;7.50;;;3.58;;
53533;SDS011;39421;53.204;6.568;2023-07-08T09:24:56;8.57;;;3.55;;
53533;SDS011;39421;53.204;6.568;2023-07-08T09:27:24;8.32;;;3.65;;
53533;SDS011;39421;53.204;6.568;2023-07-08T09:29:50;8.02;;;3.58;;
53533;SDS011;39421;53.204;6.568;2023-07-08T09:32:18;7.43;;;3.60;;
53533;SDS011;39421;53.204;6.568;2023-07-08T09:34:46;8.80;;;3.65;;
53533;SDS011;39421;53.204;6.568;2023-07-08T09:37:22;7.47;;;3.58;;
53533;SDS011;39421;53.204;6.568;2023-07-08T09:39:49;9.75;;;3.92;;
53533;SDS011;39421;53.204;6.568;2023-07-08T09:42:15;6.78;;;3.53;;
53533;SDS011;39421;53.204;6.568;2023-07-08T09:44:43;7.95;;;4.10;;
53533;SDS011;39421;53.204;6.568;2023-07-08T09:47:20;6.78;;;3.38;;
53533;SDS011;39421;53.204;6.568;2023-07-08T09:49:47;10.47;;;3.47;;
53533;SDS011;39421;53.204;6.568;2023-07-08T09:52:13;6.55;;;3.60;;
53533;SDS011;39421;53.204;6.568;2023-07-08T09:54:42;9.63;;;3.30;;
53533;SDS011;39421;53.204;6.568;2023-07-08T09:57:24;8.25;;;3.80;;
53533;SDS011;39421;53.204;6.568;2023-07-08T10:00:53;8.95;;;3.42;;
53533;SDS011;39421;53.204;6.568;2023-07-08T10:02:56;8.68;;;3.80;;
53533;SDS011;39421;53.204;6.568;2023-07-08T10:05:33;7.18;;;3.33;;
53533;SDS011;39421;53.204;6.568;2023-07-08T10:08:02;6.53;;;3.28;;
53533;SDS011;39421;53.204;6.568;2023-07-08T10:10:32;7.68;;;3.60;;
53533;SDS011;39421;53.204;6.568;2023-07-08T10:13:01;6.95;;;3.60;;
53533;SDS011;39421;53.204;6.568;2023-07-08T10:18:16;7.45;;;3.50;;
53533;SDS011;39421;53.204;6.568;2023-07-08T10:20:49;7.65;;;3.50;;
53533;SDS011;39421;53.204;6.568;2023-07-08T10:23:22;7.17;;;3.50;;
53533;SDS011;39421;53.204;6.568;2023-07-08T10:31:29;7.20;;;3.90;;
53533;SDS011;39421;53.204;6.568;2023-07-08T10:59:32;8.52;;;3.72;;
53533;SDS011;39421;53.204;6.568;2023-07-08T11:02:08;6.82;;;3.45;;
53533;SDS011;39421;53.204;6.568;2023-07-08T11:07:27;7.70;;;3.70;;
53533;SDS011;39421;53.204;6.568;2023-07-08T11:09:57;7.13;;;3.63;;
53533;SDS011;39421;53.204;6.568;2023-07-08T11:12:38;7.57;;;3.90;;
53533;SDS011;39421;53.204;6.568;2023-07-08T11:15:20;9.00;;;3.90;;
53533;SDS011;39421;53.204;6.568;2023-07-08T11:18:03;8.90;;;3.90;;
53533;SDS011;39421;53.204;6.568;2023-07-08T11:23:00;8.27;;;3.72;;
53533;SDS011;39421;53.204;6.568;2023-07-08T11:25:28;7.17;;;3.53;;
53533;SDS011;39421;53.204;6.568;2023-07-08T11:27:56;8.68;;;3.80;;
53533;SDS011;39421;53.204;6.568;2023-07-08T11:30:24;6.63;;;3.70;;
53533;SDS011;39421;53.204;6.568;2023-07-08T11:32:57;7.18;;;3.70;;
53533;SDS011;39421;53.204;6.568;2023-07-08T11:35:32;7.82;;;3.80;;
53533;SDS011;39421;53.204;6.568;2023-07-08T11:37:59;7.63;;;3.63;;
53533;SDS011;39421;53.204;6.568;2023-07-08T11:40:25;8.57;;;3.70;;
53533;SDS011;39421;53.204;6.568;2023-07-08T11:42:52;8.82;;;3.97;;
53533;SDS011;39421;53.204;6.568;2023-07-08T11:47:45;7.80;;;3.80;;
53533;SDS011;39421;53.204;6.568;2023-07-08T11:50:36;7.73;;;3.80;;
53533;SDS011;39421;53.204;6.568;2023-07-08T11:53:03;8.45;;;4.03;;
53533;SDS011;39421;53.204;6.568;2023-07-08T11:55:55;8.67;;;3.87;;
53533;SDS011;39421;53.204;6.568;2023-07-08T11:58:28;8.88;;;3.63;;
53533;SDS011;39421;53.204;6.568;2023-07-08T12:03:41;7.63;;;3.90;;
53533;SDS011;39421;53.204;6.568;2023-07-08T12:08:55;7.68;;;3.78;;
53533;SDS011;39421;53.204;6.568;2023-07-08T12:11:27;9.30;;;3.65;;
53533;SDS011;39421;53.204;6.568;2023-07-08T12:13:58;9.98;;;3.80;;
53533;SDS011;39421;53.204;6.568;2023-07-08T12:16:25;7.30;;;3.90;;
53533;SDS011;39421;53.204;6.568;2023-07-08T12:18:51;7.57;;;4.00;;
53533;SDS011;39421;53.204;6.568;2023-07-08T12:21:18;7.80;;;3.83;;
53533;SDS011;39421;53.204;6.568;2023-07-08T12:23:45;7.47;;;3.78;;
53533;SDS011;39421;53.204;6.568;2023-07-08T12:26:11;9.60;;;3.70;;
53533;SDS011;39421;53.204;6.568;2023-07-08T12:28:41;7.63;;;4.00;;
53533;SDS011;39421;53.204;6.568;2023-07-08T12:31:20;7.35;;;4.00;;
53533;SDS011;39421;53.204;6.568;2023-07-08T12:33:46;8.30;;;4.05;;
53533;SDS011;39421;53.204;6.568;2023-07-08T12:36:15;9.65;;;4.07;;
53533;SDS011;39421;53.204;6.568;2023-07-08T12:38:43;7.40;;;3.90;;
53533;SDS011;39421;53.204;6.568;2023-07-08T12:41:17;7.65;;;4.10;;
53533;SDS011;39421;53.204;6.568;2023-07-08T12:43:44;7.27;;;3.70;;
53533;SDS011;39421;53.204;6.568;2023-07-08T12:46:11;8.30;;;4.00;;
53533;SDS011;39421;53.204;6.568;2023-07-08T12:48:37;14.50;;;4.63;;
53533;SDS011;39421;53.204;6.568;2023-07-08T12:51:05;7.28;;;3.90;;
53533;SDS011;39421;53.204;6.568;2023-07-08T12:53:31;7.88;;;4.18;;
53533;SDS011;39421;53.204;6.568;2023-07-08T12:55:59;7.47;;;4.05;;
53533;SDS011;39421;53.204;6.568;2023-07-08T12:58:27;10.27;;;4.20;;
53533;SDS011;39421;53.204;6.568;2023-07-08T13:00:53;7.43;;;4.18;;
53533;SDS011;39421;53.204;6.568;2023-07-08T13:03:22;9.80;;;4.03;;
53533;SDS011;39421;53.204;6.568;2023-07-08T13:05:48;9.80;;;4.40;;
53533;SDS011;39421;53.204;6.568;2023-07-08T13:08:16;9.50;;;4.30;;
53533;SDS011;39421;53.204;6.568;2023-07-08T13:10:43;8.07;;;4.40;;
53533;SDS011;39421;53.204;6.568;2023-07-08T13:13:15;8.83;;;4.47;;
53533;SDS011;39421;53.204;6.568;2023-07-08T13:15:41;8.88;;;4.10;;
53533;SDS011;39421;53.204;6.568;2023-07-08T13:18:12;7.68;;;4.30;;
53533;SDS011;39421;53.204;6.568;2023-07-08T13:20:39;7.60;;;4.07;;
53533;SDS011;39421;53.204;6.568;2023-07-08T13:23:07;8.10;;;4.33;;
53533;SDS011;39421;53.204;6.568;2023-07-08T13:25:34;8.27;;;4.60;;
53533;SDS011;39421;53.204;6.568;2023-07-08T13:28:16;8.65;;;4.32;;
53533;SDS011;39421;53.204;6.568;2023-07-08T13:33:35;8.05;;;4.13;;
53533;SDS011;39421;53.204;6.568;2023-07-08T13:36:02;7.77;;;4.37;;
53533;SDS011;39421;53.204;6.568;2023-07-08T13:38:32;8.52;;;4.88;;
53533;SDS011;39421;53.204;6.568;2023-07-08T13:41:00;9.27;;;5.55;;
53533;SDS011;39421;53.204;6.568;2023-07-08T13:43:31;10.30;;;5.95;;
53533;SDS011;39421;53.204;6.568;2023-07-08T13:45:58;9.85;;;5.65;;
53533;SDS011;39421;53.204;6.568;2023-07-08T13:48:26;8.85;;;4.85;;
53533;SDS011;39421;53.204;6.568;2023-07-08T13:50:57;14.07;;;9.35;;
53533;SDS011;39421;53.204;6.568;2023-07-08T13:53:26;16.02;;;12.25;;
53533;SDS011;39421;53.204;6.568;2023-07-08T13:55:57;16.30;;;10.88;;
53533;SDS011;39421;53.204;6.568;2023-07-08T13:58:25;16.00;;;12.00;;
53533;SDS011;39421;53.204;6.568;2023-07-08T14:00:52;32.53;;;14.07;;
53533;SDS011;39421;53.204;6.568;2023-07-08T14:03:18;15.82;;;12.27;;
53533;SDS011;39421;53.204;6.568;2023-07-08T14:05:45;15.45;;;11.25;;
53533;SDS011;39421;53.204;6.568;2023-07-08T14:08:12;17.23;;;11.43;;
53533;SDS011;39421;53.204;6.568;2023-07-08T14:10:39;14.15;;;10.55;;
53533;SDS011;39421;53.204;6.568;2023-07-08T14:13:05;14.25;;;10.05;;
53533;SDS011;39421;53.204;6.568;2023-07-08T14:15:31;15.05;;;9.65;;
53533;SDS011;39421;53.204;6.568;2023-07-08T14:17:59;13.30;;;9.60;;
53533;SDS011;39421;53.204;6.568;2023-07-08T14:20:26;13.43;;;7.95;;
53533;SDS011;39421;53.204;6.568;2023-07-08T14:22:53;12.77;;;7.68;;
53533;SDS011;39421;53.204;6.568;2023-07-08T14:25:19;12.20;;;7.50;;
53533;SDS011;39421;53.204;6.568;2023-07-08T14:27:46;10.95;;;6.85;;
53533;SDS011;39421;53.204;6.568;2023-07-08T14:30:12;11.23;;;6.65;;
53533;SDS011;39421;53.204;6.568;2023-07-08T14:32:40;10.40;;;6.35;;
53533;SDS011;39421;53.204;6.568;2023-07-08T14:35:25;12.85;;;6.35;;
53533;SDS011;39421;53.204;6.568;2023-07-08T14:37:52;10.93;;;5.60;;
53533;SDS011;39421;53.204;6.568;2023-07-08T14:40:33;9.88;;;5.63;;
53533;SDS011;39421;53.204;6.568;2023-07-08T14:43:00;9.40;;;5.37;;
53533;SDS011;39421;53.204;6.568;2023-07-08T14:45:28;10.10;;;5.32;;
53533;SDS011;39421;53.204;6.568;2023-07-08T14:47:55;11.85;;;5.50;;
53533;SDS011;39421;53.204;6.568;2023-07-08T14:50:21;11.57;;;5.70;;
53533;SDS011;39421;53.204;6.568;2023-07-08T14:52:47;9.27;;;5.32;;
53533;SDS011;39421;53.204;6.568;2023-07-08T14:55:13;8.93;;;5.22;;
53533;SDS011;39421;53.204;6.568;2023-07-08T14:57:47;10.23;;;5.50;;
53533;SDS011;39421;53.204;6.568;2023-07-08T15:00:15;10.30;;;5.72;;
53533;SDS011;39421;53.204;6.568;2023-07-08T15:02:42;9.80;;;5.40;;
53533;SDS011;39421;53.204;6.568;2023-07-08T15:05:12;9.60;;;5.22;;
53533;SDS011;39421;53.204;6.568;2023-07-08T15:07:39;8.83;;;5.37;;
53533;SDS011;39421;53.204;6.568;2023-07-08T15:10:06;9.70;;;5.20;;
53533;SDS011;39421;53.204;6.568;2023-07-08T15:12:32;10.70;;;5.38;;
53533;SDS011;39421;53.204;6.568;2023-07-08T15:14:58;9.45;;;5.50;;
53533;SDS011;39421;53.204;6.568;2023-07-08T15:17:24;9.03;;;5.30;;
53533;SDS011;39421;53.204;6.568;2023-07-08T15:19:51;9.75;;;5.40;;
53533;SDS011;39421;53.204;6.568;2023-07-08T15:22:17;10.05;;;5.20;;
53533;SDS011;39421;53.204;6.568;2023-07-08T15:24:43;9.70;;;5.30;;
53533;SDS011;39421;53.204;6.568;2023-07-08T15:27:11;10.27;;;5.10;;
53533;SDS011;39421;53.204;6.568;2023-07-08T15:29:37;8.77;;;5.18;;
53533;SDS011;39421;53.204;6.568;2023-07-08T15:32:04;9.32;;;5.20;;
53533;SDS011;39421;53.204;6.568;2023-07-08T15:34:35;10.15;;;5.20;;
53533;SDS011;39421;53.204;6.568;2023-07-08T15:37:01;9.63;;;5.30;;
53533;SDS011;39421;53.204;6.568;2023-07-08T15:39:27;10.10;;;5.20;;
53533;SDS011;39421;53.204;6.568;2023-07-08T15:41:53;8.98;;;5.22;;
53533;SDS011;39421;53.204;6.568;2023-07-08T15:44:20;9.90;;;5.40;;
53533;SDS011;39421;53.204;6.568;2023-07-08T15:46:47;9.00;;;5.43;;
53533;SDS011;39421;53.204;6.568;2023-07-08T15:49:15;10.70;;;5.30;;
53533;SDS011;39421;53.204;6.568;2023-07-08T15:51:41;9.27;;;5.53;;
53533;SDS011;39421;53.204;6.568;2023-07-08T15:54:07;10.25;;;5.60;;
53533;SDS011;39421;53.204;6.568;2023-07-08T15:56:33;9.25;;;5.40;;
53533;SDS011;39421;53.204;6.568;2023-07-08T15:58:59;10.10;;;5.72;;
53533;SDS011;39421;53.204;6.568;2023-07-08T16:01:26;9.52;;;5.82;;